sensor_id;sensor_type;location;lat;lon;timestamp;P1;durP1;ratioP1;P2;durP2;ratioP2
79751;SDS011;69234;47.446;21.636;2024-03-08T00:00:28;40.90;;;39.17;;
79751;SDS011;69234;47.446;21.636;2024-03-08T00:00:59;39.17;;;37.67;;
79751;SDS011;69234;47.446;21.636;2024-03-08T00:01:30;39.53;;;37.97;;
79751;SDS011;69234;47.446;21.636;2024-03-08T00:02:01;40.40;;;38.87;;
79751;SDS011;69234;47.446;21.636;2024-03-08T00:02:32;40.43;;;38.80;;
79751;SDS011;69234;47.446;21.636;2024-03-08T00:03:03;40.77;;;39.10;;
79751;SDS011;69234;47.446;21.636;2024-03-08T00:03:34;39.63;;;38.37;;
79751;SDS011;69234;47.446;21.636;2024-03-08T00:04:05;39.60;;;38.40;;
79751;SDS011;69234;47.446;21.636;2024-03-08T00:04:36;41.00;;;39.53;;
79751;SDS011;69234;47.446;21.636;2024-03-08T00:05:08;39.97;;;38.47;;
79751;SDS011;69234;47.446;21.636;2024-03-08T00:05:39;39.60;;;38.17;;
79751;SDS011;69234;47.446;21.636;2024-03-08T00:06:11;39.70;;;38.33;;
79751;SDS011;69234;47.446;21.636;2024-03-08T00:06:42;38.27;;;37.00;;
79751;SDS011;69234;47.446;21.636;2024-03-08T00:07:16;39.03;;;37.70;;
79751;SDS011;69234;47.446;21.636;2024-03-08T00:07:46;40.43;;;38.70;;
79751;SDS011;69234;47.446;21.636;2024-03-08T00:08:21;38.97;;;37.30;;
79751;SDS011;69234;47.446;21.636;2024-03-08T00:09:26;41.43;;;39.57;;
79751;SDS011;69234;47.446;21.636;2024-03-08T00:09:57;40.17;;;38.70;;
79751;SDS011;69234;47.446;21.636;2024-03-08T00:10:29;39.17;;;37.67;;
79751;SDS011;69234;47.446;21.636;2024-03-08T00:10:59;40.20;;;38.53;;
79751;SDS011;69234;47.446;21.636;2024-03-08T00:11:30;40.13;;;38.47;;
79751;SDS011;69234;47.446;21.636;2024-03-08T00:12:01;39.67;;;38.20;;
79751;SDS011;69234;47.446;21.636;2024-03-08T00:12:32;39.47;;;38.13;;
79751;SDS011;69234;47.446;21.636;2024-03-08T00:13:03;39.50;;;38.07;;
79751;SDS011;69234;47.446;21.636;2024-03-08T00:13:34;39.37;;;38.07;;
79751;SDS011;69234;47.446;21.636;2024-03-08T00:14:05;39.50;;;38.13;;
79751;SDS011;69234;47.446;21.636;2024-03-08T00:14:37;39.83;;;38.20;;
79751;SDS011;69234;47.446;21.636;2024-03-08T00:15:08;40.03;;;38.47;;
79751;SDS011;69234;47.446;21.636;2024-03-08T00:15:41;38.53;;;36.90;;
79751;SDS011;69234;47.446;21.636;2024-03-08T00:16:11;38.60;;;37.17;;
79751;SDS011;69234;47.446;21.636;2024-03-08T00:16:42;40.17;;;38.50;;
79751;SDS011;69234;47.446;21.636;2024-03-08T00:17:13;41.33;;;39.50;;
79751;SDS011;69234;47.446;21.636;2024-03-08T00:17:46;41.17;;;39.47;;
79751;SDS011;69234;47.446;21.636;2024-03-08T00:18:17;39.20;;;37.73;;
79751;SDS011;69234;47.446;21.636;2024-03-08T00:18:47;39.77;;;38.30;;
79751;SDS011;69234;47.446;21.636;2024-03-08T00:19:19;40.27;;;38.63;;
79751;SDS011;69234;47.446;21.636;2024-03-08T00:19:51;39.97;;;38.50;;
79751;SDS011;69234;47.446;21.636;2024-03-08T00:20:22;40.27;;;38.77;;
79751;SDS011;69234;47.446;21.636;2024-03-08T00:20:53;40.03;;;38.67;;
79751;SDS011;69234;47.446;21.636;2024-03-08T00:21:24;40.43;;;38.80;;
79751;SDS011;69234;47.446;21.636;2024-03-08T00:21:56;40.60;;;39.17;;
79751;SDS011;69234;47.446;21.636;2024-03-08T00:22:27;40.83;;;39.33;;
79751;SDS011;69234;47.446;21.636;2024-03-08T00:23:00;40.20;;;38.73;;
79751;SDS011;69234;47.446;21.636;2024-03-08T00:23:31;39.70;;;38.23;;
79751;SDS011;69234;47.446;21.636;2024-03-08T00:24:03;39.63;;;38.37;;
79751;SDS011;69234;47.446;21.636;2024-03-08T00:24:34;39.33;;;38.27;;
79751;SDS011;69234;47.446;21.636;2024-03-08T00:26:20;40.53;;;38.73;;
79751;SDS011;69234;47.446;21.636;2024-03-08T00:26:52;40.30;;;38.80;;
79751;SDS011;69234;47.446;21.636;2024-03-08T00:27:24;38.13;;;36.90;;
79751;SDS011;69234;47.446;21.636;2024-03-08T00:27:55;39.30;;;38.00;;
79751;SDS011;69234;47.446;21.636;2024-03-08T00:28:26;38.87;;;37.67;;
79751;SDS011;69234;47.446;21.636;2024-03-08T00:28:57;39.47;;;38.17;;
79751;SDS011;69234;47.446;21.636;2024-03-08T00:29:28;39.13;;;37.90;;
79751;SDS011;69234;47.446;21.636;2024-03-08T00:30:00;40.30;;;38.90;;
79751;SDS011;69234;47.446;21.636;2024-03-08T00:30:32;39.50;;;37.97;;
79751;SDS011;69234;47.446;21.636;2024-03-08T00:31:03;38.70;;;37.47;;
79751;SDS011;69234;47.446;21.636;2024-03-08T00:31:34;39.77;;;38.60;;
79751;SDS011;69234;47.446;21.636;2024-03-08T00:32:05;40.40;;;39.03;;
79751;SDS011;69234;47.446;21.636;2024-03-08T00:32:38;40.57;;;38.77;;
79751;SDS011;69234;47.446;21.636;2024-03-08T00:33:09;40.03;;;38.30;;
79751;SDS011;69234;47.446;21.636;2024-03-08T00:33:39;40.63;;;39.10;;
79751;SDS011;69234;47.446;21.636;2024-03-08T00:34:10;41.67;;;39.83;;
79751;SDS011;69234;47.446;21.636;2024-03-08T00:34:42;41.10;;;39.33;;
79751;SDS011;69234;47.446;21.636;2024-03-08T00:35:13;39.67;;;38.37;;
79751;SDS011;69234;47.446;21.636;2024-03-08T00:35:44;40.10;;;38.87;;
79751;SDS011;69234;47.446;21.636;2024-03-08T00:36:14;40.77;;;39.50;;
79751;SDS011;69234;47.446;21.636;2024-03-08T00:36:45;41.23;;;40.10;;
79751;SDS011;69234;47.446;21.636;2024-03-08T00:37:16;40.93;;;39.50;;
79751;SDS011;69234;47.446;21.636;2024-03-08T00:37:48;40.50;;;39.07;;
79751;SDS011;69234;47.446;21.636;2024-03-08T00:38:19;39.93;;;38.47;;
79751;SDS011;69234;47.446;21.636;2024-03-08T00:38:50;38.97;;;37.37;;
79751;SDS011;69234;47.446;21.636;2024-03-08T00:39:20;39.87;;;38.27;;
79751;SDS011;69234;47.446;21.636;2024-03-08T00:39:52;40.67;;;39.10;;
79751;SDS011;69234;47.446;21.636;2024-03-08T00:40:26;41.43;;;39.90;;
79751;SDS011;69234;47.446;21.636;2024-03-08T00:40:59;41.47;;;39.60;;
79751;SDS011;69234;47.446;21.636;2024-03-08T00:41:30;39.43;;;37.90;;
79751;SDS011;69234;47.446;21.636;2024-03-08T00:42:01;38.33;;;37.03;;
79751;SDS011;69234;47.446;21.636;2024-03-08T00:42:32;40.40;;;38.90;;
79751;SDS011;69234;47.446;21.636;2024-03-08T00:43:03;39.77;;;38.33;;
79751;SDS011;69234;47.446;21.636;2024-03-08T00:43:34;40.30;;;38.97;;
79751;SDS011;69234;47.446;21.636;2024-03-08T00:44:05;40.80;;;39.50;;
79751;SDS011;69234;47.446;21.636;2024-03-08T00:44:36;39.93;;;38.70;;
79751;SDS011;69234;47.446;21.636;2024-03-08T00:45:08;41.33;;;39.80;;
79751;SDS011;69234;47.446;21.636;2024-03-08T00:45:40;40.80;;;39.37;;
79751;SDS011;69234;47.446;21.636;2024-03-08T00:46:12;41.10;;;39.57;;
79751;SDS011;69234;47.446;21.636;2024-03-08T00:46:45;41.03;;;39.63;;
79751;SDS011;69234;47.446;21.636;2024-03-08T00:47:16;41.20;;;39.77;;
79751;SDS011;69234;47.446;21.636;2024-03-08T00:47:47;40.80;;;39.30;;
79751;SDS011;69234;47.446;21.636;2024-03-08T00:48:18;41.27;;;39.77;;
79751;SDS011;69234;47.446;21.636;2024-03-08T00:48:49;41.27;;;39.83;;
79751;SDS011;69234;47.446;21.636;2024-03-08T00:49:20;40.57;;;39.03;;
79751;SDS011;69234;47.446;21.636;2024-03-08T00:49:51;41.03;;;39.43;;
79751;SDS011;69234;47.446;21.636;2024-03-08T00:50:23;41.13;;;39.37;;
79751;SDS011;69234;47.446;21.636;2024-03-08T00:50:54;40.80;;;39.07;;
79751;SDS011;69234;47.446;21.636;2024-03-08T00:51:25;41.07;;;39.53;;
79751;SDS011;69234;47.446;21.636;2024-03-08T00:51:56;40.93;;;39.53;;
79751;SDS011;69234;47.446;21.636;2024-03-08T00:52:27;41.87;;;40.43;;
79751;SDS011;69234;47.446;21.636;2024-03-08T00:52:57;42.60;;;40.90;;
79751;SDS011;69234;47.446;21.636;2024-03-08T00:53:28;42.77;;;41.00;;
79751;SDS011;69234;47.446;21.636;2024-03-08T00:53:59;41.13;;;39.33;;
79751;SDS011;69234;47.446;21.636;2024-03-08T00:54:30;41.73;;;39.77;;
79751;SDS011;69234;47.446;21.636;2024-03-08T00:55:01;40.73;;;39.07;;
79751;SDS011;69234;47.446;21.636;2024-03-08T00:55:32;40.37;;;38.80;;
79751;SDS011;69234;47.446;21.636;2024-03-08T00:56:03;40.50;;;39.27;;
79751;SDS011;69234;47.446;21.636;2024-03-08T00:56:34;41.23;;;39.90;;
79751;SDS011;69234;47.446;21.636;2024-03-08T00:57:05;41.17;;;39.63;;
79751;SDS011;69234;47.446;21.636;2024-03-08T00:57:36;41.33;;;39.53;;
79751;SDS011;69234;47.446;21.636;2024-03-08T00:58:08;41.93;;;40.07;;
79751;SDS011;69234;47.446;21.636;2024-03-08T00:58:39;39.83;;;38.20;;
79751;SDS011;69234;47.446;21.636;2024-03-08T00:59:10;40.67;;;39.23;;
79751;SDS011;69234;47.446;21.636;2024-03-08T00:59:41;41.70;;;40.17;;
79751;SDS011;69234;47.446;21.636;2024-03-08T01:00:12;41.20;;;39.53;;
79751;SDS011;69234;47.446;21.636;2024-03-08T01:00:43;42.20;;;40.50;;
79751;SDS011;69234;47.446;21.636;2024-03-08T01:01:14;41.77;;;40.13;;
79751;SDS011;69234;47.446;21.636;2024-03-08T01:01:48;42.53;;;40.67;;
79751;SDS011;69234;47.446;21.636;2024-03-08T01:02:19;41.97;;;40.07;;
79751;SDS011;69234;47.446;21.636;2024-03-08T01:02:51;41.83;;;40.17;;
79751;SDS011;69234;47.446;21.636;2024-03-08T01:03:22;41.17;;;39.60;;
79751;SDS011;69234;47.446;21.636;2024-03-08T01:03:53;41.53;;;39.97;;
79751;SDS011;69234;47.446;21.636;2024-03-08T01:04:24;41.77;;;40.50;;
79751;SDS011;69234;47.446;21.636;2024-03-08T01:04:56;41.17;;;39.80;;
79751;SDS011;69234;47.446;21.636;2024-03-08T01:05:26;40.70;;;39.27;;
79751;SDS011;69234;47.446;21.636;2024-03-08T01:05:57;42.20;;;40.63;;
79751;SDS011;69234;47.446;21.636;2024-03-08T01:06:31;41.90;;;40.43;;
79751;SDS011;69234;47.446;21.636;2024-03-08T01:07:02;40.80;;;39.40;;
79751;SDS011;69234;47.446;21.636;2024-03-08T01:07:35;40.90;;;39.57;;
79751;SDS011;69234;47.446;21.636;2024-03-08T01:08:06;41.73;;;40.07;;
79751;SDS011;69234;47.446;21.636;2024-03-08T01:08:38;40.77;;;39.00;;
79751;SDS011;69234;47.446;21.636;2024-03-08T01:09:11;40.17;;;38.77;;
79751;SDS011;69234;47.446;21.636;2024-03-08T01:09:42;40.37;;;38.93;;
79751;SDS011;69234;47.446;21.636;2024-03-08T01:10:13;40.40;;;38.73;;
79751;SDS011;69234;47.446;21.636;2024-03-08T01:10:43;41.27;;;39.53;;
79751;SDS011;69234;47.446;21.636;2024-03-08T01:11:14;39.83;;;38.30;;
79751;SDS011;69234;47.446;21.636;2024-03-08T01:13:20;42.07;;;40.50;;
79751;SDS011;69234;47.446;21.636;2024-03-08T01:13:51;42.20;;;40.83;;
79751;SDS011;69234;47.446;21.636;2024-03-08T01:14:23;41.37;;;40.07;;
79751;SDS011;69234;47.446;21.636;2024-03-08T01:14:56;41.57;;;40.03;;
79751;SDS011;69234;47.446;21.636;2024-03-08T01:15:28;41.37;;;39.73;;
79751;SDS011;69234;47.446;21.636;2024-03-08T01:16:00;42.13;;;40.20;;
79751;SDS011;69234;47.446;21.636;2024-03-08T01:16:31;41.83;;;39.90;;
79751;SDS011;69234;47.446;21.636;2024-03-08T01:17:03;43.70;;;41.80;;
79751;SDS011;69234;47.446;21.636;2024-03-08T01:17:34;43.97;;;42.40;;
79751;SDS011;69234;47.446;21.636;2024-03-08T01:18:05;42.40;;;40.80;;
79751;SDS011;69234;47.446;21.636;2024-03-08T01:18:37;41.23;;;40.07;;
79751;SDS011;69234;47.446;21.636;2024-03-08T01:19:08;41.87;;;40.80;;
79751;SDS011;69234;47.446;21.636;2024-03-08T01:19:39;43.83;;;42.03;;
79751;SDS011;69234;47.446;21.636;2024-03-08T01:20:10;43.13;;;41.00;;
79751;SDS011;69234;47.446;21.636;2024-03-08T01:20:42;41.63;;;39.93;;
79751;SDS011;69234;47.446;21.636;2024-03-08T01:21:13;42.13;;;40.57;;
79751;SDS011;69234;47.446;21.636;2024-03-08T01:21:44;42.43;;;40.97;;
79751;SDS011;69234;47.446;21.636;2024-03-08T01:22:15;43.43;;;41.93;;
79751;SDS011;69234;47.446;21.636;2024-03-08T01:22:46;43.43;;;41.67;;
79751;SDS011;69234;47.446;21.636;2024-03-08T01:23:16;43.13;;;41.43;;
79751;SDS011;69234;47.446;21.636;2024-03-08T01:23:47;44.03;;;42.07;;
79751;SDS011;69234;47.446;21.636;2024-03-08T01:24:19;45.43;;;43.57;;
79751;SDS011;69234;47.446;21.636;2024-03-08T01:24:50;44.23;;;42.63;;
79751;SDS011;69234;47.446;21.636;2024-03-08T01:25:21;41.33;;;39.63;;
79751;SDS011;69234;47.446;21.636;2024-03-08T01:25:53;41.43;;;39.73;;
79751;SDS011;69234;47.446;21.636;2024-03-08T01:26:26;43.33;;;41.40;;
79751;SDS011;69234;47.446;21.636;2024-03-08T01:26:57;42.10;;;40.27;;
79751;SDS011;69234;47.446;21.636;2024-03-08T01:27:28;43.43;;;41.73;;
79751;SDS011;69234;47.446;21.636;2024-03-08T01:27:59;42.83;;;41.50;;
79751;SDS011;69234;47.446;21.636;2024-03-08T01:28:30;42.83;;;41.37;;
79751;SDS011;69234;47.446;21.636;2024-03-08T01:29:02;43.80;;;42.13;;
79751;SDS011;69234;47.446;21.636;2024-03-08T01:29:33;44.50;;;42.67;;
79751;SDS011;69234;47.446;21.636;2024-03-08T01:30:04;43.90;;;42.07;;
79751;SDS011;69234;47.446;21.636;2024-03-08T01:30:36;45.00;;;43.40;;
79751;SDS011;69234;47.446;21.636;2024-03-08T01:31:07;44.00;;;42.57;;
79751;SDS011;69234;47.446;21.636;2024-03-08T01:31:38;42.60;;;41.50;;
79751;SDS011;69234;47.446;21.636;2024-03-08T01:32:10;43.50;;;42.27;;
79751;SDS011;69234;47.446;21.636;2024-03-08T01:32:40;43.50;;;42.03;;
79751;SDS011;69234;47.446;21.636;2024-03-08T01:33:12;44.13;;;42.40;;
79751;SDS011;69234;47.446;21.636;2024-03-08T01:33:44;44.20;;;42.33;;
79751;SDS011;69234;47.446;21.636;2024-03-08T01:34:15;44.40;;;42.47;;
79751;SDS011;69234;47.446;21.636;2024-03-08T01:34:46;43.10;;;41.30;;
79751;SDS011;69234;47.446;21.636;2024-03-08T01:35:17;44.50;;;42.70;;
79751;SDS011;69234;47.446;21.636;2024-03-08T01:35:51;45.83;;;44.03;;
79751;SDS011;69234;47.446;21.636;2024-03-08T01:36:52;43.13;;;41.47;;
79751;SDS011;69234;47.446;21.636;2024-03-08T01:37:22;43.57;;;41.97;;
79751;SDS011;69234;47.446;21.636;2024-03-08T01:37:54;45.07;;;43.37;;
79751;SDS011;69234;47.446;21.636;2024-03-08T01:38:25;46.23;;;44.33;;
79751;SDS011;69234;47.446;21.636;2024-03-08T01:38:56;44.60;;;43.13;;
79751;SDS011;69234;47.446;21.636;2024-03-08T01:39:27;44.60;;;43.10;;
79751;SDS011;69234;47.446;21.636;2024-03-08T01:39:57;44.30;;;42.90;;
79751;SDS011;69234;47.446;21.636;2024-03-08T01:40:28;44.67;;;43.47;;
79751;SDS011;69234;47.446;21.636;2024-03-08T01:40:59;44.87;;;43.57;;
79751;SDS011;69234;47.446;21.636;2024-03-08T01:41:30;45.07;;;43.37;;
79751;SDS011;69234;47.446;21.636;2024-03-08T01:42:01;45.70;;;44.03;;
79751;SDS011;69234;47.446;21.636;2024-03-08T01:42:32;45.93;;;43.83;;
79751;SDS011;69234;47.446;21.636;2024-03-08T01:44:06;43.83;;;42.57;;
79751;SDS011;69234;47.446;21.636;2024-03-08T01:44:37;43.97;;;42.27;;
79751;SDS011;69234;47.446;21.636;2024-03-08T01:45:09;44.77;;;42.90;;
79751;SDS011;69234;47.446;21.636;2024-03-08T01:45:40;45.83;;;43.80;;
79751;SDS011;69234;47.446;21.636;2024-03-08T01:46:12;46.80;;;44.63;;
79751;SDS011;69234;47.446;21.636;2024-03-08T01:46:49;45.33;;;43.13;;
79751;SDS011;69234;47.446;21.636;2024-03-08T01:47:22;44.30;;;42.47;;
79751;SDS011;69234;47.446;21.636;2024-03-08T01:47:53;44.87;;;42.83;;
79751;SDS011;69234;47.446;21.636;2024-03-08T01:48:24;46.47;;;44.17;;
79751;SDS011;69234;47.446;21.636;2024-03-08T01:48:56;45.10;;;43.33;;
79751;SDS011;69234;47.446;21.636;2024-03-08T01:49:27;43.83;;;42.27;;
79751;SDS011;69234;47.446;21.636;2024-03-08T01:49:59;44.43;;;42.90;;
79751;SDS011;69234;47.446;21.636;2024-03-08T01:50:31;46.47;;;44.73;;
79751;SDS011;69234;47.446;21.636;2024-03-08T01:51:02;45.60;;;43.90;;
79751;SDS011;69234;47.446;21.636;2024-03-08T01:51:35;45.50;;;44.00;;
79751;SDS011;69234;47.446;21.636;2024-03-08T01:52:06;45.27;;;43.60;;
79751;SDS011;69234;47.446;21.636;2024-03-08T01:52:37;45.23;;;43.60;;
79751;SDS011;69234;47.446;21.636;2024-03-08T01:53:08;45.90;;;44.43;;
79751;SDS011;69234;47.446;21.636;2024-03-08T01:53:42;45.90;;;44.37;;
79751;SDS011;69234;47.446;21.636;2024-03-08T01:54:17;46.57;;;44.63;;
79751;SDS011;69234;47.446;21.636;2024-03-08T01:54:50;45.67;;;43.93;;
79751;SDS011;69234;47.446;21.636;2024-03-08T01:55:21;45.93;;;44.13;;
79751;SDS011;69234;47.446;21.636;2024-03-08T01:55:53;45.27;;;43.50;;
79751;SDS011;69234;47.446;21.636;2024-03-08T01:56:28;44.83;;;43.20;;
79751;SDS011;69234;47.446;21.636;2024-03-08T01:57:01;47.23;;;45.73;;
79751;SDS011;69234;47.446;21.636;2024-03-08T01:57:32;47.43;;;46.00;;
79751;SDS011;69234;47.446;21.636;2024-03-08T01:58:05;46.67;;;44.73;;
79751;SDS011;69234;47.446;21.636;2024-03-08T01:58:36;47.20;;;44.70;;
79751;SDS011;69234;47.446;21.636;2024-03-08T01:59:07;46.73;;;44.43;;
79751;SDS011;69234;47.446;21.636;2024-03-08T01:59:39;44.87;;;42.97;;
79751;SDS011;69234;47.446;21.636;2024-03-08T02:00:12;47.87;;;45.50;;
79751;SDS011;69234;47.446;21.636;2024-03-08T02:00:44;47.03;;;44.80;;
79751;SDS011;69234;47.446;21.636;2024-03-08T02:01:16;47.33;;;44.97;;
79751;SDS011;69234;47.446;21.636;2024-03-08T02:01:49;46.20;;;44.07;;
79751;SDS011;69234;47.446;21.636;2024-03-08T02:02:21;45.47;;;43.63;;
79751;SDS011;69234;47.446;21.636;2024-03-08T02:02:53;45.70;;;43.90;;
79751;SDS011;69234;47.446;21.636;2024-03-08T02:03:24;45.57;;;43.87;;
79751;SDS011;69234;47.446;21.636;2024-03-08T02:03:55;46.33;;;44.40;;
79751;SDS011;69234;47.446;21.636;2024-03-08T02:04:27;44.93;;;43.10;;
79751;SDS011;69234;47.446;21.636;2024-03-08T02:04:59;46.07;;;44.43;;
79751;SDS011;69234;47.446;21.636;2024-03-08T02:05:31;45.70;;;44.10;;
79751;SDS011;69234;47.446;21.636;2024-03-08T02:06:02;46.97;;;45.40;;
79751;SDS011;69234;47.446;21.636;2024-03-08T02:06:35;46.97;;;45.20;;
79751;SDS011;69234;47.446;21.636;2024-03-08T02:07:08;45.50;;;43.60;;
79751;SDS011;69234;47.446;21.636;2024-03-08T02:07:41;45.43;;;43.43;;
79751;SDS011;69234;47.446;21.636;2024-03-08T02:08:14;45.63;;;43.43;;
79751;SDS011;69234;47.446;21.636;2024-03-08T02:08:46;46.90;;;45.03;;
79751;SDS011;69234;47.446;21.636;2024-03-08T02:09:18;44.97;;;43.47;;
79751;SDS011;69234;47.446;21.636;2024-03-08T02:09:49;45.23;;;43.80;;
79751;SDS011;69234;47.446;21.636;2024-03-08T02:10:21;45.40;;;43.87;;
79751;SDS011;69234;47.446;21.636;2024-03-08T02:10:52;46.27;;;44.73;;
79751;SDS011;69234;47.446;21.636;2024-03-08T02:11:23;46.00;;;44.17;;
79751;SDS011;69234;47.446;21.636;2024-03-08T02:11:54;47.77;;;45.27;;
79751;SDS011;69234;47.446;21.636;2024-03-08T02:12:26;47.23;;;45.13;;
79751;SDS011;69234;47.446;21.636;2024-03-08T02:12:59;48.43;;;46.07;;
79751;SDS011;69234;47.446;21.636;2024-03-08T02:13:32;47.67;;;45.27;;
79751;SDS011;69234;47.446;21.636;2024-03-08T02:14:04;46.73;;;44.73;;
79751;SDS011;69234;47.446;21.636;2024-03-08T02:14:36;46.23;;;44.50;;
79751;SDS011;69234;47.446;21.636;2024-03-08T02:15:07;46.37;;;44.47;;
79751;SDS011;69234;47.446;21.636;2024-03-08T02:16:11;47.40;;;45.53;;
79751;SDS011;69234;47.446;21.636;2024-03-08T02:16:38;47.30;;;45.13;;
79751;SDS011;69234;47.446;21.636;2024-03-08T02:17:09;45.73;;;43.83;;
79751;SDS011;69234;47.446;21.636;2024-03-08T02:17:42;44.77;;;43.10;;
79751;SDS011;69234;47.446;21.636;2024-03-08T02:18:12;47.93;;;46.00;;
79751;SDS011;69234;47.446;21.636;2024-03-08T02:18:44;48.90;;;46.33;;
79751;SDS011;69234;47.446;21.636;2024-03-08T02:19:15;50.13;;;46.67;;
79751;SDS011;69234;47.446;21.636;2024-03-08T02:19:46;48.50;;;45.67;;
79751;SDS011;69234;47.446;21.636;2024-03-08T02:20:18;47.17;;;45.07;;
79751;SDS011;69234;47.446;21.636;2024-03-08T02:20:51;46.43;;;44.37;;
79751;SDS011;69234;47.446;21.636;2024-03-08T02:21:34;46.37;;;44.53;;
79751;SDS011;69234;47.446;21.636;2024-03-08T02:22:05;45.43;;;43.57;;
79751;SDS011;69234;47.446;21.636;2024-03-08T02:22:36;47.87;;;45.63;;
79751;SDS011;69234;47.446;21.636;2024-03-08T02:23:08;47.50;;;45.23;;
79751;SDS011;69234;47.446;21.636;2024-03-08T02:23:39;47.17;;;45.13;;
79751;SDS011;69234;47.446;21.636;2024-03-08T02:24:10;46.37;;;44.30;;
79751;SDS011;69234;47.446;21.636;2024-03-08T02:24:41;45.80;;;43.80;;
79751;SDS011;69234;47.446;21.636;2024-03-08T02:25:12;45.60;;;43.93;;
79751;SDS011;69234;47.446;21.636;2024-03-08T02:25:43;46.33;;;44.83;;
79751;SDS011;69234;47.446;21.636;2024-03-08T02:26:14;47.47;;;45.30;;
79751;SDS011;69234;47.446;21.636;2024-03-08T02:26:45;46.27;;;44.27;;
79751;SDS011;69234;47.446;21.636;2024-03-08T02:27:22;47.37;;;45.20;;
79751;SDS011;69234;47.446;21.636;2024-03-08T02:27:56;47.80;;;45.50;;
79751;SDS011;69234;47.446;21.636;2024-03-08T02:28:27;45.60;;;43.57;;
79751;SDS011;69234;47.446;21.636;2024-03-08T02:28:59;48.30;;;45.90;;
79751;SDS011;69234;47.446;21.636;2024-03-08T02:29:31;47.00;;;45.17;;
79751;SDS011;69234;47.446;21.636;2024-03-08T02:30:04;45.93;;;44.37;;
79751;SDS011;69234;47.446;21.636;2024-03-08T02:30:35;47.77;;;45.43;;
79751;SDS011;69234;47.446;21.636;2024-03-08T02:31:07;48.23;;;45.87;;
79751;SDS011;69234;47.446;21.636;2024-03-08T02:31:38;48.30;;;46.23;;
79751;SDS011;69234;47.446;21.636;2024-03-08T02:32:09;46.17;;;44.57;;
79751;SDS011;69234;47.446;21.636;2024-03-08T02:32:40;46.43;;;45.03;;
79751;SDS011;69234;47.446;21.636;2024-03-08T02:33:12;47.37;;;45.40;;
79751;SDS011;69234;47.446;21.636;2024-03-08T02:33:46;46.63;;;44.50;;
79751;SDS011;69234;47.446;21.636;2024-03-08T02:34:17;45.23;;;43.43;;
79751;SDS011;69234;47.446;21.636;2024-03-08T02:34:48;45.67;;;43.73;;
79751;SDS011;69234;47.446;21.636;2024-03-08T02:35:20;47.63;;;45.10;;
79751;SDS011;69234;47.446;21.636;2024-03-08T02:35:51;46.77;;;44.50;;
79751;SDS011;69234;47.446;21.636;2024-03-08T02:36:22;48.90;;;46.07;;
79751;SDS011;69234;47.446;21.636;2024-03-08T02:36:53;48.47;;;45.57;;
79751;SDS011;69234;47.446;21.636;2024-03-08T02:37:24;47.70;;;45.60;;
79751;SDS011;69234;47.446;21.636;2024-03-08T02:37:55;46.10;;;44.60;;
79751;SDS011;69234;47.446;21.636;2024-03-08T02:38:26;46.77;;;45.17;;
79751;SDS011;69234;47.446;21.636;2024-03-08T02:38:57;46.37;;;44.63;;
79751;SDS011;69234;47.446;21.636;2024-03-08T02:39:28;45.87;;;44.07;;
79751;SDS011;69234;47.446;21.636;2024-03-08T02:39:59;46.57;;;44.87;;
79751;SDS011;69234;47.446;21.636;2024-03-08T02:40:30;46.63;;;44.80;;
79751;SDS011;69234;47.446;21.636;2024-03-08T02:41:01;46.47;;;44.50;;
79751;SDS011;69234;47.446;21.636;2024-03-08T02:41:34;45.87;;;43.97;;
79751;SDS011;69234;47.446;21.636;2024-03-08T02:42:04;44.80;;;43.10;;
79751;SDS011;69234;47.446;21.636;2024-03-08T02:42:36;44.97;;;43.17;;
79751;SDS011;69234;47.446;21.636;2024-03-08T02:43:07;45.47;;;43.73;;
79751;SDS011;69234;47.446;21.636;2024-03-08T02:43:38;47.67;;;45.57;;
79751;SDS011;69234;47.446;21.636;2024-03-08T02:44:09;47.10;;;45.07;;
79751;SDS011;69234;47.446;21.636;2024-03-08T02:44:42;46.67;;;44.87;;
79751;SDS011;69234;47.446;21.636;2024-03-08T02:45:16;46.13;;;44.30;;
79751;SDS011;69234;47.446;21.636;2024-03-08T02:45:47;46.47;;;44.43;;
79751;SDS011;69234;47.446;21.636;2024-03-08T02:46:18;46.87;;;45.13;;
79751;SDS011;69234;47.446;21.636;2024-03-08T02:46:49;46.13;;;44.40;;
79751;SDS011;69234;47.446;21.636;2024-03-08T02:47:20;46.37;;;44.50;;
79751;SDS011;69234;47.446;21.636;2024-03-08T02:47:51;44.13;;;42.57;;
79751;SDS011;69234;47.446;21.636;2024-03-08T02:48:22;45.13;;;43.67;;
79751;SDS011;69234;47.446;21.636;2024-03-08T02:48:53;45.50;;;44.03;;
79751;SDS011;69234;47.446;21.636;2024-03-08T02:49:24;46.87;;;44.67;;
79751;SDS011;69234;47.446;21.636;2024-03-08T02:49:55;45.40;;;43.27;;
79751;SDS011;69234;47.446;21.636;2024-03-08T02:50:26;45.47;;;43.67;;
79751;SDS011;69234;47.446;21.636;2024-03-08T02:50:57;46.63;;;44.93;;
79751;SDS011;69234;47.446;21.636;2024-03-08T02:51:28;46.67;;;44.83;;
79751;SDS011;69234;47.446;21.636;2024-03-08T02:51:59;46.10;;;44.07;;
79751;SDS011;69234;47.446;21.636;2024-03-08T02:52:30;45.13;;;43.43;;
79751;SDS011;69234;47.446;21.636;2024-03-08T02:53:01;46.53;;;44.80;;
79751;SDS011;69234;47.446;21.636;2024-03-08T02:53:32;46.87;;;44.73;;
79751;SDS011;69234;47.446;21.636;2024-03-08T02:54:03;47.67;;;45.40;;
79751;SDS011;69234;47.446;21.636;2024-03-08T02:54:34;45.63;;;43.67;;
79751;SDS011;69234;47.446;21.636;2024-03-08T02:55:07;46.00;;;44.03;;
79751;SDS011;69234;47.446;21.636;2024-03-08T02:55:40;46.70;;;44.50;;
79751;SDS011;69234;47.446;21.636;2024-03-08T02:56:13;47.27;;;45.00;;
79751;SDS011;69234;47.446;21.636;2024-03-08T02:56:46;46.03;;;43.70;;
79751;SDS011;69234;47.446;21.636;2024-03-08T02:57:17;47.20;;;45.00;;
79751;SDS011;69234;47.446;21.636;2024-03-08T02:57:48;47.63;;;45.87;;
79751;SDS011;69234;47.446;21.636;2024-03-08T02:58:19;46.37;;;44.40;;
79751;SDS011;69234;47.446;21.636;2024-03-08T02:58:50;46.67;;;44.63;;
79751;SDS011;69234;47.446;21.636;2024-03-08T02:59:21;47.67;;;45.83;;
79751;SDS011;69234;47.446;21.636;2024-03-08T02:59:52;45.67;;;44.07;;
79751;SDS011;69234;47.446;21.636;2024-03-08T03:00:24;45.70;;;43.83;;
79751;SDS011;69234;47.446;21.636;2024-03-08T03:00:55;46.47;;;44.20;;
79751;SDS011;69234;47.446;21.636;2024-03-08T03:01:27;46.80;;;44.40;;
79751;SDS011;69234;47.446;21.636;2024-03-08T03:01:58;47.57;;;45.37;;
79751;SDS011;69234;47.446;21.636;2024-03-08T03:02:29;45.53;;;43.93;;
79751;SDS011;69234;47.446;21.636;2024-03-08T03:03:00;44.77;;;43.23;;
79751;SDS011;69234;47.446;21.636;2024-03-08T03:03:33;46.57;;;44.47;;
79751;SDS011;69234;47.446;21.636;2024-03-08T03:04:04;45.97;;;44.07;;
79751;SDS011;69234;47.446;21.636;2024-03-08T03:04:35;44.17;;;42.47;;
79751;SDS011;69234;47.446;21.636;2024-03-08T03:05:06;47.23;;;45.10;;
79751;SDS011;69234;47.446;21.636;2024-03-08T03:05:37;46.07;;;44.10;;
79751;SDS011;69234;47.446;21.636;2024-03-08T03:06:11;45.00;;;42.97;;
79751;SDS011;69234;47.446;21.636;2024-03-08T03:06:42;45.37;;;43.30;;
79751;SDS011;69234;47.446;21.636;2024-03-08T03:07:13;45.70;;;43.63;;